createdAt,value
2023-08-31T00:09:06.556Z,18.08
2023-08-31T00:12:50.471Z,18.01
2023-08-31T00:33:23.281Z,18.13
2023-08-31T00:36:32.536Z,17.97
2023-08-31T01:00:41.707Z,17.83
2023-08-31T01:15:21.924Z,18.00
2023-08-31T01:18:03.304Z,17.73
2023-08-31T02:00:06.845Z,17.86
2023-08-31T02:08:01.508Z,17.40
2023-08-31T02:22:06.267Z,17.56
2023-08-31T02:26:04.993Z,17.45
2023-08-31T02:45:08.521Z,17.35
2023-08-31T02:59:36.279Z,17.46
2023-08-31T03:03:59.935Z,17.37
2023-08-31T03:12:32.083Z,17.09
2023-08-31T03:26:35.163Z,17.29
2023-08-31T03:40:27.341Z,17.39
2023-08-31T03:43:52.425Z,17.27
2023-08-31T04:02:36.395Z,17.29
2023-08-31T04:16:06.520Z,17.43
2023-08-31T04:49:16.133Z,17.68
2023-08-31T04:52:38.295Z,17.58
2023-08-31T04:55:45.377Z,17.53
2023-08-31T04:59:32.411Z,17.53
2023-08-31T05:02:00.815Z,17.50
2023-08-31T05:04:33.237Z,17.56
2023-08-31T05:07:09.337Z,17.61
2023-08-31T05:09:41.054Z,17.65
2023-08-31T05:14:38.892Z,17.79
2023-08-31T05:18:21.352Z,17.71
2023-08-31T05:21:48.239Z,17.73
2023-08-31T05:25:28.922Z,17.79
2023-08-31T05:27:58.074Z,17.72
2023-08-31T05:31:02.330Z,17.81
2023-08-31T05:33:34.921Z,18.02
2023-08-31T05:36:20.407Z,18.19
2023-08-31T05:38:49.308Z,18.37
2023-08-31T05:41:47.241Z,18.45
2023-08-31T05:45:48.892Z,18.56
2023-08-31T05:59:43.794Z,18.84
2023-08-31T06:02:46.062Z,18.81
2023-08-31T06:06:08.252Z,18.73
2023-08-31T06:09:55.624Z,18.80
2023-08-31T06:14:02.575Z,18.78
2023-08-31T06:17:45.963Z,18.68
2023-08-31T06:21:26.922Z,18.61
2023-08-31T06:36:32.756Z,18.76
2023-08-31T06:49:42.432Z,19.94
2023-08-31T07:03:27.021Z,20.57
2023-08-31T07:06:05.829Z,20.55
2023-08-31T07:09:52.210Z,20.49
2023-08-31T07:25:19.042Z,20.41
2023-08-31T07:28:04.478Z,20.27
2023-08-31T07:31:43.776Z,20.19
2023-08-31T07:46:18.426Z,21.16
2023-08-31T07:49:11.056Z,21.25
2023-08-31T08:03:26.177Z,22.31
2023-08-31T08:17:03.860Z,23.59
2023-08-31T08:20:10.827Z,23.84
2023-08-31T08:24:49.905Z,23.79
2023-08-31T08:38:01.532Z,23.57
2023-08-31T08:51:22.220Z,24.45
2023-08-31T08:53:52.059Z,24.75
2023-08-31T08:56:46.116Z,24.86
2023-08-31T08:59:20.556Z,25.20
2023-08-31T09:33:10.080Z,25.81
2023-08-31T09:36:30.924Z,26.10
2023-08-31T09:39:38.979Z,25.79
2023-08-31T09:43:28.536Z,26.19
2023-08-31T09:47:27.918Z,26.43
2023-08-31T09:50:35.918Z,26.07
2023-08-31T09:54:11.049Z,26.56
2023-08-31T09:56:46.449Z,26.16
2023-08-31T09:59:20.448Z,26.38
2023-08-31T10:01:49.245Z,26.42
2023-08-31T10:04:18.387Z,26.79
2023-08-31T10:27:22.222Z,28.11
2023-08-31T10:44:01.626Z,26.76
2023-08-31T10:48:02.329Z,26.44
2023-08-31T11:29:20.462Z,26.87
2023-08-31T11:32:12.709Z,26.33
2023-08-31T11:35:47.018Z,26.41
2023-08-31T11:39:28.021Z,26.58
2023-08-31T11:43:14.234Z,26.18
2023-08-31T11:45:45.660Z,26.03
2023-08-31T11:48:14.047Z,26.64
2023-08-31T11:50:43.655Z,27.47
2023-08-31T11:53:15.753Z,26.95
2023-08-31T11:58:14.489Z,27.16
2023-08-31T12:02:12.322Z,27.27
2023-08-31T12:05:50.045Z,27.16
2023-08-31T12:09:13.206Z,27.37
2023-08-31T12:12:58.614Z,27.31
2023-08-31T12:16:40.155Z,28.07
2023-08-31T12:20:34.268Z,27.63
2023-08-31T12:23:23.358Z,27.42
2023-08-31T12:27:18.270Z,27.86
2023-08-31T12:30:48.894Z,27.65
2023-08-31T12:34:25.376Z,27.65
2023-08-31T12:38:27.779Z,28.09
2023-08-31T12:41:34.704Z,28.70
2023-08-31T13:00:28.954Z,28.90
2023-08-31T13:04:11.628Z,30.26
2023-08-31T13:07:44.493Z,28.74
2023-08-31T13:11:42.426Z,28.58
2023-08-31T13:15:03.542Z,28.72
2023-08-31T13:19:00.095Z,28.08
2023-08-31T13:22:39.466Z,27.48
2023-08-31T13:26:18.741Z,28.48
2023-08-31T13:29:34.517Z,29.71
2023-08-31T13:33:26.421Z,29.28
2023-08-31T14:01:27.726Z,26.52
2023-08-31T14:15:04.516Z,24.72
2023-08-31T14:17:32.032Z,23.65
2023-08-31T14:20:06.407Z,23.13
2023-08-31T14:22:43.420Z,22.89
2023-08-31T14:25:12.532Z,22.89
2023-08-31T14:27:39.647Z,22.72
2023-08-31T14:30:09.391Z,22.45
2023-08-31T14:32:35.917Z,22.48
2023-08-31T14:35:06.288Z,22.52
2023-08-31T14:37:33.024Z,22.46
2023-08-31T14:39:59.677Z,22.22
2023-08-31T14:42:26.358Z,22.08
2023-08-31T14:44:53.415Z,21.82
2023-08-31T14:47:21.783Z,21.68
2023-08-31T14:49:48.290Z,21.45
2023-08-31T14:52:15.988Z,21.28
2023-08-31T14:54:42.708Z,21.06
2023-08-31T14:57:09.456Z,20.49
2023-08-31T14:59:36.016Z,20.03
2023-08-31T15:03:29.513Z,19.66
2023-08-31T15:17:53.979Z,18.12
2023-08-31T15:20:43.974Z,17.73
2023-08-31T15:24:23.725Z,17.85
2023-08-31T15:28:05.756Z,18.06
2023-08-31T15:32:05.470Z,19.29
2023-08-31T15:35:29.569Z,20.78
2023-08-31T15:39:13.848Z,20.76
2023-08-31T15:43:10.131Z,20.24
2023-08-31T15:46:35.173Z,19.78
2023-08-31T15:50:28.567Z,19.26
2023-08-31T16:04:14.014Z,20.97
2023-08-31T16:27:26.526Z,20.82
2023-08-31T17:52:19.201Z,18.29
2023-08-31T17:55:24.449Z,18.10
2023-08-31T17:59:23.000Z,17.95
2023-08-31T18:02:52.555Z,17.72
2023-08-31T18:16:49.930Z,17.88
2023-08-31T18:19:53.789Z,17.75
2023-08-31T18:23:19.201Z,17.64
2023-08-31T18:51:07.004Z,17.73
2023-08-31T19:00:06.182Z,17.53
2023-08-31T19:03:18.091Z,17.35
2023-08-31T19:23:37.290Z,17.32
2023-08-31T20:55:37.686Z,16.69
2023-08-31T22:04:17.524Z,16.01
2023-08-31T23:46:24.667Z,14.33
